Decoded Metar for KOTH (NORTH BEND in OR, USA) (IATA:OTH) | Meteo·Mobile Aviation Weather
aviador You're here:

KOTH Decoded Metar

NORTH BEND in OR, USA
Report Time2019-07-23 02:05:00
UTC Time2019-07-23 02:36:14
Flight Rules mvfr MVFR
Wind350° at 12 kt
W.Decomp.*RWY 31: 11.1 kt HW 4.5 kt RCW
RWY 04: 4.5 kt HW 11.1 kt LCW
Visibility9999 m
Phenomena:N/A
Clouds:Broken 019 Hf
Expected CloudBase > 2,000 ft AGL from Temp-Dew spread
Ceiling1,900 ft
Temp19°C (ISA +4)
Dew Point14°C (73% RH)
AAT16.0°C
QNH1020 hPa
Density Alt463 ft
Elevation13 ft
Report Wrong Elevation
Raw Report
KOTH 230205Z 35012KT 10SM BKN019 19/14 A3011 RMK AO2=

Extra information for KOTH:More info

Metar Taf Metar & Taf Last 4 Metars F.Rules Stats Wind Profile Meteogram Temp Stats Airport Information Weather charts Add Link Nearby VenuesMetar ALERT Operation Metar Decoded Social comments

AIRNAV info for KOTH